MMPB/PBC METAR and TAF weather

Enter ICAO airport designator
Station Type Date Time Source
MMPB METAR 2020/11/25 21:40 UTC NOAA

MMPB 252140Z 15004KT 9SM SCT025 26/00 A3027 RMK 8/500 HZY AC


Station Type Date Time Source
MMPB Decoded METAR 2020/11/25 21:40 UTC NOAA

Puebla, Pue., Mexico (MMPB) 19-03N 098-10W
Nov 25, 2020 - 04:40 PM EST / 2020.11.25 2140 UTC
Wind: from the SSE (150 degrees) at 5 MPH (4 KT):0
Visibility: 9 mile(s):0
Sky conditions: partly cloudy
Temperature: 78 F (26 C)
Dew Point: 32 F (0 C)
Relative Humidity: 18%
Pressure (altimeter): 30.27 in. Hg (1025 hPa)
ob: MMPB 252140Z 15004KT 9SM SCT025 26/00 A3027 RMK 8/500 HZY AC
cycle: 21

Station Type Date Time Source
MMPB TAF 2020/11/25 18:19 UTC NOAA

TAF MMPB 251615Z 2518/2618 04006KT P6SM SKC
BECMG 2520/2521 04008KT SCT020
FM260300 00000KT P6SM SKC
BECMG 2617/2618 06008KT

Example: see airport list